createdAt,value
2023-01-22T00:00:00.655Z,103120
2023-01-22T00:01:00.893Z,103120
2023-01-22T00:02:00.288Z,103120
2023-01-22T00:03:00.286Z,103120
2023-01-22T00:04:00.346Z,103120
2023-01-22T00:05:00.303Z,103120
2023-01-22T00:06:00.380Z,103120
2023-01-22T00:07:00.287Z,103120
2023-01-22T00:08:00.274Z,103120
2023-01-22T00:09:00.257Z,103120
2023-01-22T00:10:00.429Z,103120
2023-01-22T00:11:00.326Z,103130
2023-01-22T00:12:00.265Z,103130
2023-01-22T00:13:00.263Z,103120
2023-01-22T00:14:00.290Z,103120
2023-01-22T00:15:00.290Z,103120
2023-01-22T00:16:00.471Z,103120
2023-01-22T00:17:00.292Z,103120
2023-01-22T00:18:00.265Z,103120
2023-01-22T00:19:00.268Z,103120
2023-01-22T00:20:00.272Z,103120
2023-01-22T00:21:00.332Z,103130
2023-01-22T00:22:00.396Z,103130
2023-01-22T00:23:00.388Z,103130
2023-01-22T00:24:00.429Z,103130
2023-01-22T00:25:00.287Z,103130
2023-01-22T00:26:01.324Z,103130
2023-01-22T00:27:00.264Z,103120
2023-01-22T00:28:00.285Z,103120
2023-01-22T00:29:00.293Z,103120
2023-01-22T00:30:00.303Z,103120
2023-01-22T00:31:00.946Z,103120
2023-01-22T00:32:00.633Z,103120
2023-01-22T00:33:00.303Z,103120
2023-01-22T00:34:00.335Z,103120
2023-01-22T00:35:00.310Z,103120
2023-01-22T00:36:08.974Z,103120
2023-01-22T00:37:00.346Z,103120
2023-01-22T00:38:00.281Z,103120
2023-01-22T00:39:00.287Z,103120
2023-01-22T00:40:00.321Z,103120
2023-01-22T00:41:00.973Z,103120
2023-01-22T00:42:00.270Z,103120
2023-01-22T00:43:00.278Z,103110
2023-01-22T00:44:00.320Z,103110
2023-01-22T00:45:00.297Z,103110
2023-01-22T00:46:00.494Z,103110
2023-01-22T00:47:00.266Z,103110
2023-01-22T00:48:00.339Z,103110
2023-01-22T00:49:00.321Z,103110
2023-01-22T00:50:00.786Z,103110
2023-01-22T00:51:00.376Z,103110
2023-01-22T00:52:00.284Z,103110
2023-01-22T00:53:00.295Z,103110
2023-01-22T00:54:00.288Z,103110
2023-01-22T00:55:00.288Z,103110
2023-01-22T00:56:00.979Z,103110
2023-01-22T00:57:00.279Z,103110
2023-01-22T00:58:00.290Z,103110
2023-01-22T00:59:00.280Z,103110
2023-01-22T01:00:00.276Z,103110
2023-01-22T01:01:00.356Z,103100
2023-01-22T01:02:00.330Z,103100
2023-01-22T01:03:00.263Z,103100
2023-01-22T01:04:00.292Z,103100
2023-01-22T01:05:00.286Z,103100
2023-01-22T01:06:02.011Z,103100
2023-01-22T01:07:00.303Z,103090
2023-01-22T01:08:00.313Z,103090
2023-01-22T01:09:00.293Z,103090
2023-01-22T01:10:00.301Z,103090
2023-01-22T01:11:01.987Z,103090
2023-01-22T01:12:00.317Z,103090
2023-01-22T01:13:00.283Z,103090
2023-01-22T01:14:00.664Z,103090
2023-01-22T01:15:00.293Z,103080
2023-01-22T01:16:01.124Z,103080
2023-01-22T01:17:00.282Z,103090
2023-01-22T01:18:00.292Z,103090
2023-01-22T01:19:01.476Z,103090
2023-01-22T01:20:00.309Z,103090
2023-01-22T01:21:00.821Z,103090
2023-01-22T01:22:00.287Z,103090
2023-01-22T01:23:00.295Z,103090
2023-01-22T01:24:00.477Z,103090
2023-01-22T01:25:00.264Z,103090
2023-01-22T01:26:03.546Z,103090
2023-01-22T01:27:00.263Z,103090
2023-01-22T01:28:00.287Z,103090
2023-01-22T01:29:01.393Z,103080
2023-01-22T01:30:00.275Z,103080
2023-01-22T01:31:00.909Z,103080
2023-01-22T01:32:00.366Z,103080
2023-01-22T01:33:00.298Z,103090
2023-01-22T01:34:00.273Z,103090
2023-01-22T01:35:00.304Z,103090
2023-01-22T01:36:01.458Z,103090
2023-01-22T01:37:00.381Z,103080
2023-01-22T01:38:00.901Z,103080
2023-01-22T01:39:00.981Z,103090
2023-01-22T01:40:00.291Z,103090
2023-01-22T01:41:00.346Z,103090
2023-01-22T01:42:00.280Z,103090
2023-01-22T01:43:00.474Z,103080
2023-01-22T01:44:10.199Z,103080
2023-01-22T01:45:10.223Z,103080
2023-01-22T01:46:01.480Z,103080
2023-01-22T01:47:02.636Z,103080
2023-01-22T01:48:10.192Z,103080
2023-01-22T01:49:00.571Z,103080
2023-01-22T01:50:00.457Z,103080
2023-01-22T01:51:03.738Z,103070
2023-01-22T01:52:01.897Z,103070
2023-01-22T01:53:00.944Z,103070
2023-01-22T01:54:01.735Z,103070
2023-01-22T01:55:00.357Z,103070
2023-01-22T01:56:01.714Z,103070
2023-01-22T01:57:02.994Z,103070
2023-01-22T01:58:03.941Z,103070
2023-01-22T01:59:04.578Z,103070
2023-01-22T02:00:01.560Z,103070
2023-01-22T02:01:04.582Z,103070
2023-01-22T02:02:01.254Z,103070
2023-01-22T02:03:00.572Z,103060
2023-01-22T02:04:00.285Z,103060
2023-01-22T02:05:00.669Z,103060
2023-01-22T02:06:00.309Z,103060
2023-01-22T02:07:01.223Z,103040
2023-01-22T02:08:00.690Z,103040
2023-01-22T02:09:00.638Z,103040
2023-01-22T02:10:00.423Z,103040
2023-01-22T02:11:00.321Z,103030
2023-01-22T02:12:01.079Z,103030
2023-01-22T02:13:03.835Z,103030
2023-01-22T02:14:00.287Z,103030
2023-01-22T02:15:01.103Z,103040
2023-01-22T02:16:00.302Z,103040
2023-01-22T02:17:01.018Z,103040
2023-01-22T02:18:00.306Z,103040
2023-01-22T02:19:00.331Z,103040
2023-01-22T02:20:00.352Z,103040
2023-01-22T02:21:00.696Z,103040
2023-01-22T02:22:00.355Z,103040
2023-01-22T02:23:00.311Z,103050
2023-01-22T02:24:00.946Z,103050
2023-01-22T02:25:00.363Z,103050
2023-01-22T02:26:00.434Z,103050
2023-01-22T02:27:00.308Z,103050
2023-01-22T02:28:00.291Z,103050
2023-01-22T02:29:00.614Z,103040
2023-01-22T02:30:00.482Z,103040
2023-01-22T02:31:00.338Z,103040
2023-01-22T02:32:00.292Z,103040
2023-01-22T02:33:00.288Z,103050
2023-01-22T02:34:00.540Z,103050
2023-01-22T02:35:00.325Z,103040
2023-01-22T02:36:00.276Z,103040
2023-01-22T02:37:00.331Z,103050
2023-01-22T02:38:00.325Z,103050
2023-01-22T02:39:00.307Z,103050
2023-01-22T02:40:00.308Z,103050
2023-01-22T02:41:00.308Z,103040
2023-01-22T02:42:00.495Z,103040
2023-01-22T02:43:00.330Z,103050
2023-01-22T02:44:00.312Z,103050
2023-01-22T02:45:00.298Z,103050
2023-01-22T02:46:00.389Z,103050
2023-01-22T02:47:00.319Z,103050
2023-01-22T02:48:00.295Z,103050
2023-01-22T02:49:00.302Z,103050
2023-01-22T02:50:00.440Z,103050
2023-01-22T02:51:00.354Z,103060
2023-01-22T02:52:00.404Z,103060
2023-01-22T02:53:00.275Z,103060
2023-01-22T02:54:00.367Z,103060
2023-01-22T02:55:00.269Z,103060
2023-01-22T02:56:04.067Z,103060
2023-01-22T02:57:00.275Z,103060
2023-01-22T02:58:00.273Z,103060
2023-01-22T02:59:01.319Z,103060
2023-01-22T03:00:00.592Z,103060
2023-01-22T03:01:08.805Z,103060
2023-01-22T03:02:00.369Z,103060
2023-01-22T03:03:00.267Z,103060
2023-01-22T03:04:01.534Z,103060
2023-01-22T03:05:00.267Z,103060
2023-01-22T03:06:00.290Z,103060
2023-01-22T03:07:00.286Z,103050
2023-01-22T03:08:00.287Z,103050
2023-01-22T03:09:00.285Z,103050
2023-01-22T03:10:00.302Z,103050
2023-01-22T03:11:00.291Z,103050
2023-01-22T03:12:00.293Z,103050
2023-01-22T03:13:00.300Z,103050
2023-01-22T03:14:00.383Z,103050
2023-01-22T03:15:00.260Z,103050
2023-01-22T03:16:02.160Z,103050
2023-01-22T03:17:00.533Z,103060
2023-01-22T03:18:00.284Z,103060
2023-01-22T03:19:02.143Z,103050
2023-01-22T03:20:00.298Z,103050
2023-01-22T03:21:00.581Z,103060
2023-01-22T03:22:00.631Z,103060
2023-01-22T03:23:00.280Z,103050
2023-01-22T03:24:00.270Z,103050
2023-01-22T03:25:00.368Z,103040
2023-01-22T03:26:00.431Z,103040
2023-01-22T03:27:00.746Z,103040
2023-01-22T03:28:00.277Z,103040
2023-01-22T03:29:00.258Z,103030
2023-01-22T03:30:00.315Z,103030
2023-01-22T03:31:00.312Z,103030
2023-01-22T03:32:00.310Z,103030
2023-01-22T03:33:00.299Z,103030
2023-01-22T03:34:00.300Z,103030
2023-01-22T03:35:00.298Z,103030
2023-01-22T03:36:01.241Z,103030
2023-01-22T03:37:00.304Z,103030
2023-01-22T03:38:00.285Z,103030
2023-01-22T03:39:00.264Z,103030
2023-01-22T03:40:00.347Z,103030
2023-01-22T03:41:01.294Z,103020
2023-01-22T03:42:00.303Z,103020
2023-01-22T03:43:00.302Z,103010
2023-01-22T03:44:00.268Z,103010
2023-01-22T03:45:00.272Z,103010
2023-01-22T03:46:01.170Z,103010
2023-01-22T03:47:00.324Z,103020
2023-01-22T03:48:00.294Z,103020
2023-01-22T03:49:00.294Z,103020
2023-01-22T03:50:00.319Z,103020
2023-01-22T03:51:10.303Z,103020
2023-01-22T03:52:00.289Z,103020
2023-01-22T03:53:00.285Z,103020
2023-01-22T03:54:00.303Z,103020
2023-01-22T03:55:00.294Z,103010
2023-01-22T03:56:02.974Z,103010
2023-01-22T03:57:00.283Z,103010
2023-01-22T03:58:00.276Z,103010
2023-01-22T03:59:00.265Z,103020
2023-01-22T04:00:00.313Z,103020
2023-01-22T04:01:01.206Z,103020
2023-01-22T04:02:00.375Z,103020
2023-01-22T04:03:00.295Z,103020
2023-01-22T04:04:00.293Z,103020
2023-01-22T04:05:00.266Z,103010
2023-01-22T04:06:00.311Z,103010
2023-01-22T04:07:00.267Z,103010
2023-01-22T04:08:00.285Z,103010
2023-01-22T04:09:00.299Z,103010
2023-01-22T04:10:00.262Z,103010
2023-01-22T04:11:00.859Z,103010
2023-01-22T04:12:00.294Z,103010
2023-01-22T04:13:00.265Z,103020
2023-01-22T04:14:00.291Z,103020
2023-01-22T04:15:00.294Z,103010
2023-01-22T04:16:00.667Z,103010
2023-01-22T04:17:00.294Z,103010
2023-01-22T04:18:00.292Z,103010
2023-01-22T04:19:00.288Z,103010
2023-01-22T04:20:00.281Z,103010
2023-01-22T04:21:00.300Z,103010
2023-01-22T04:22:00.264Z,103010
2023-01-22T04:23:00.335Z,103020
2023-01-22T04:24:00.262Z,103020
2023-01-22T04:25:00.305Z,103020
2023-01-22T04:26:00.297Z,103020
2023-01-22T04:27:00.300Z,103010
2023-01-22T04:28:00.691Z,103010
2023-01-22T04:29:00.299Z,103020
2023-01-22T04:30:00.286Z,103020
2023-01-22T04:31:00.366Z,103010
2023-01-22T04:32:00.292Z,103010
2023-01-22T04:33:00.256Z,103020
2023-01-22T04:34:00.289Z,103020
2023-01-22T04:35:00.267Z,103010
2023-01-22T04:36:00.622Z,103010
2023-01-22T04:37:00.305Z,103010
2023-01-22T04:38:00.450Z,103010
2023-01-22T04:39:00.474Z,103010
2023-01-22T04:40:00.286Z,103010
2023-01-22T04:41:00.303Z,103010
2023-01-22T04:42:00.294Z,103010
2023-01-22T04:43:00.814Z,103010
2023-01-22T04:44:00.284Z,103010
2023-01-22T04:45:00.271Z,103010
2023-01-22T04:46:00.353Z,103010
2023-01-22T04:47:00.276Z,103010
2023-01-22T04:48:00.846Z,103010
2023-01-22T04:49:00.294Z,103010
2023-01-22T04:50:00.312Z,103010
2023-01-22T04:51:00.376Z,103000
2023-01-22T04:52:00.293Z,103000
2023-01-22T04:53:00.408Z,103010
2023-01-22T04:54:00.303Z,103010
2023-01-22T04:55:00.264Z,103010
2023-01-22T04:56:00.265Z,103010
2023-01-22T04:57:00.290Z,103010
2023-01-22T04:58:00.697Z,103010
2023-01-22T04:59:00.324Z,103010
2023-01-22T05:00:00.377Z,103010
2023-01-22T05:01:00.365Z,103010
2023-01-22T05:02:00.304Z,103010
2023-01-22T05:03:00.948Z,103010
2023-01-22T05:04:00.839Z,103010
2023-01-22T05:05:00.272Z,103000
2023-01-22T05:06:02.522Z,103000
2023-01-22T05:07:00.264Z,103000
2023-01-22T05:08:00.318Z,103000
2023-01-22T05:09:00.300Z,103000
2023-01-22T05:10:00.442Z,103000
2023-01-22T05:11:01.020Z,103010
2023-01-22T05:12:00.311Z,103010
2023-01-22T05:13:01.968Z,103010
2023-01-22T05:14:00.272Z,103010
2023-01-22T05:15:00.307Z,103000
2023-01-22T05:16:00.337Z,103000
2023-01-22T05:17:00.316Z,103000
2023-01-22T05:18:00.336Z,103000
2023-01-22T05:19:00.317Z,103000
2023-01-22T05:20:00.300Z,103000
2023-01-22T05:21:00.260Z,103000
2023-01-22T05:22:00.749Z,103000
2023-01-22T05:23:00.288Z,103000
2023-01-22T05:24:00.291Z,103000
2023-01-22T05:25:00.302Z,103010
2023-01-22T05:26:00.262Z,103010
2023-01-22T05:27:00.409Z,103010
2023-01-22T05:28:00.407Z,103010
2023-01-22T05:29:00.267Z,103010
2023-01-22T05:30:00.302Z,103010
2023-01-22T05:31:00.392Z,103010
2023-01-22T05:32:00.285Z,103010
2023-01-22T05:33:00.297Z,103020
2023-01-22T05:34:00.370Z,103020
2023-01-22T05:35:00.273Z,103010
2023-01-22T05:36:01.581Z,103010
2023-01-22T05:37:00.273Z,103020
2023-01-22T05:38:00.283Z,103020
2023-01-22T05:39:00.292Z,103020
2023-01-22T05:40:00.321Z,103020
2023-01-22T05:41:00.314Z,103020
2023-01-22T05:42:00.293Z,103020
2023-01-22T05:43:02.035Z,103030
2023-01-22T05:44:00.886Z,103030
2023-01-22T05:45:00.286Z,103030
2023-01-22T05:46:00.837Z,103030
2023-01-22T05:47:00.267Z,103030
2023-01-22T05:48:00.263Z,103030
2023-01-22T05:49:00.321Z,103030
2023-01-22T05:50:00.259Z,103030
2023-01-22T05:51:04.231Z,103030
2023-01-22T05:52:00.260Z,103030
2023-01-22T05:53:00.294Z,103030
2023-01-22T05:54:00.287Z,103030
2023-01-22T05:55:00.273Z,103030
2023-01-22T05:56:01.154Z,103030
2023-01-22T05:57:00.275Z,103030
2023-01-22T05:58:00.716Z,103030
2023-01-22T05:59:00.299Z,103030
2023-01-22T06:00:00.316Z,103030
2023-01-22T06:01:00.290Z,103030
2023-01-22T06:02:00.760Z,103030
2023-01-22T06:03:01.320Z,103030
2023-01-22T06:04:00.313Z,103030
2023-01-22T06:05:00.383Z,103030
2023-01-22T06:06:01.585Z,103030
2023-01-22T06:07:00.277Z,103020
2023-01-22T06:08:00.367Z,103020
2023-01-22T06:09:00.291Z,103020
2023-01-22T06:10:00.322Z,103020
2023-01-22T06:11:00.992Z,103030
2023-01-22T06:12:00.265Z,103030
2023-01-22T06:13:00.299Z,103030
2023-01-22T06:14:00.297Z,103030
2023-01-22T06:15:00.265Z,103030
2023-01-22T06:16:00.409Z,103030
2023-01-22T06:17:00.299Z,103030
2023-01-22T06:18:00.308Z,103030
2023-01-22T06:19:00.349Z,103030
2023-01-22T06:20:00.268Z,103030
2023-01-22T06:21:01.639Z,103030
2023-01-22T06:22:00.269Z,103030
2023-01-22T06:23:00.278Z,103030
2023-01-22T06:24:00.263Z,103030
2023-01-22T06:25:00.287Z,103030
2023-01-22T06:26:01.382Z,103030
2023-01-22T06:27:00.312Z,103030
2023-01-22T06:28:00.312Z,103030
2023-01-22T06:29:00.290Z,103030
2023-01-22T06:30:00.301Z,103030
2023-01-22T06:31:01.423Z,103030
2023-01-22T06:32:00.295Z,103030
2023-01-22T06:33:00.274Z,103030
2023-01-22T06:34:00.264Z,103030
2023-01-22T06:35:00.275Z,103020
2023-01-22T06:36:00.424Z,103020
2023-01-22T06:37:00.275Z,103020
2023-01-22T06:38:00.313Z,103020
2023-01-22T06:39:00.339Z,103020
2023-01-22T06:40:00.299Z,103020
2023-01-22T06:41:00.545Z,103020
2023-01-22T06:42:00.271Z,103020
2023-01-22T06:43:01.994Z,103030
2023-01-22T06:44:00.273Z,103030
2023-01-22T06:45:00.293Z,103030
2023-01-22T06:46:01.720Z,103030
2023-01-22T06:47:00.264Z,103030
2023-01-22T06:48:00.292Z,103030
2023-01-22T06:49:00.264Z,103030
2023-01-22T06:50:00.319Z,103030
2023-01-22T06:51:00.361Z,103030
2023-01-22T06:52:00.325Z,103030
2023-01-22T06:53:00.424Z,103030
2023-01-22T06:54:00.269Z,103030
2023-01-22T06:55:00.266Z,103030
2023-01-22T06:56:00.666Z,103030
2023-01-22T06:57:00.268Z,103040
2023-01-22T06:58:00.329Z,103040
2023-01-22T06:59:00.267Z,103040
2023-01-22T07:00:00.320Z,103040
2023-01-22T07:01:01.509Z,103050
2023-01-22T07:02:00.343Z,103050
2023-01-22T07:03:03.763Z,103040
2023-01-22T07:04:00.434Z,103040
2023-01-22T07:05:00.305Z,103040
2023-01-22T07:06:01.597Z,103040
2023-01-22T07:07:00.276Z,103040
2023-01-22T07:08:00.726Z,103040
2023-01-22T07:09:00.272Z,103030
2023-01-22T07:10:00.308Z,103030
2023-01-22T07:11:00.450Z,103040
2023-01-22T07:12:00.302Z,103040
2023-01-22T07:13:00.260Z,103040
2023-01-22T07:14:00.271Z,103040
2023-01-22T07:15:00.279Z,103040
2023-01-22T07:16:01.186Z,103040
2023-01-22T07:17:00.279Z,103040
2023-01-22T07:18:00.350Z,103040
2023-01-22T07:19:00.265Z,103040
2023-01-22T07:20:00.272Z,103040
2023-01-22T07:21:01.061Z,103040
2023-01-22T07:22:00.280Z,103040
2023-01-22T07:23:00.422Z,103040
2023-01-22T07:24:00.266Z,103040
2023-01-22T07:25:00.288Z,103040
2023-01-22T07:26:00.266Z,103040
2023-01-22T07:27:00.712Z,103040
2023-01-22T07:28:01.168Z,103040
2023-01-22T07:29:00.307Z,103040
2023-01-22T07:30:00.267Z,103040
2023-01-22T07:31:00.421Z,103040
2023-01-22T07:32:00.325Z,103040
2023-01-22T07:33:00.919Z,103040
2023-01-22T07:34:00.950Z,103040
2023-01-22T07:35:00.306Z,103050
2023-01-22T07:36:00.318Z,103050
2023-01-22T07:37:00.292Z,103050
2023-01-22T07:38:00.270Z,103050
2023-01-22T07:39:03.484Z,103040
2023-01-22T07:40:00.306Z,103040
2023-01-22T07:41:02.773Z,103040
2023-01-22T07:42:00.300Z,103040
2023-01-22T07:43:03.868Z,103040
2023-01-22T07:44:00.269Z,103040
2023-01-22T07:45:00.331Z,103040
2023-01-22T07:46:01.211Z,103040
2023-01-22T07:47:00.286Z,103040
2023-01-22T07:48:00.314Z,103040
2023-01-22T07:49:00.350Z,103040
2023-01-22T07:50:00.278Z,103040
2023-01-22T07:51:01.651Z,103050
2023-01-22T07:52:00.481Z,103050
2023-01-22T07:53:00.290Z,103040
2023-01-22T07:54:00.305Z,103040
2023-01-22T07:55:00.303Z,103050
2023-01-22T07:56:00.842Z,103050
2023-01-22T07:57:00.372Z,103060
2023-01-22T07:58:01.468Z,103060
2023-01-22T07:59:00.277Z,103050
2023-01-22T08:00:00.305Z,103050
2023-01-22T08:01:03.791Z,103060
2023-01-22T08:02:03.096Z,103060
2023-01-22T08:03:01.016Z,103060
2023-01-22T08:04:00.264Z,103060
2023-01-22T08:05:00.264Z,103060
2023-01-22T08:06:00.341Z,103060
2023-01-22T08:07:00.279Z,103060
2023-01-22T08:08:00.331Z,103060
2023-01-22T08:09:00.284Z,103060
2023-01-22T08:10:00.265Z,103060
2023-01-22T08:11:00.330Z,103060
2023-01-22T08:12:00.289Z,103060
2023-01-22T08:13:00.260Z,103070
2023-01-22T08:14:00.301Z,103070
2023-01-22T08:15:00.272Z,103070
2023-01-22T08:16:00.442Z,103070
2023-01-22T08:17:00.335Z,103070
2023-01-22T08:18:00.339Z,103070
2023-01-22T08:19:00.302Z,103070
2023-01-22T08:20:00.336Z,103070
2023-01-22T08:21:00.279Z,103070
2023-01-22T08:22:00.271Z,103070
2023-01-22T08:23:00.322Z,103070
2023-01-22T08:24:00.308Z,103070
2023-01-22T08:25:00.295Z,103070
2023-01-22T08:26:00.919Z,103070
2023-01-22T08:27:00.408Z,103070
2023-01-22T08:28:00.652Z,103070
2023-01-22T08:29:02.621Z,103070
2023-01-22T08:30:00.467Z,103070
2023-01-22T08:31:01.161Z,103080
2023-01-22T08:32:00.425Z,103080
2023-01-22T08:33:00.328Z,103080
2023-01-22T08:34:00.491Z,103080
2023-01-22T08:35:00.272Z,103080
2023-01-22T08:36:00.297Z,103080
2023-01-22T08:37:00.291Z,103070
2023-01-22T08:38:00.394Z,103070
2023-01-22T08:39:00.267Z,103070
2023-01-22T08:40:00.281Z,103070
2023-01-22T08:41:00.274Z,103070
2023-01-22T08:42:00.285Z,103070
2023-01-22T08:43:00.290Z,103070
2023-01-22T08:44:00.297Z,103070
2023-01-22T08:45:00.304Z,103070
2023-01-22T08:46:00.464Z,103070
2023-01-22T08:47:00.267Z,103070
2023-01-22T08:48:00.300Z,103070
2023-01-22T08:49:01.801Z,103070
2023-01-22T08:50:00.300Z,103070
2023-01-22T08:51:00.323Z,103070
2023-01-22T08:52:00.318Z,103070
2023-01-22T08:53:00.285Z,103070
2023-01-22T08:54:00.448Z,103070
2023-01-22T08:55:00.300Z,103070
2023-01-22T08:56:00.305Z,103070
2023-01-22T08:57:00.297Z,103070
2023-01-22T08:58:00.266Z,103070
2023-01-22T08:59:00.315Z,103070
2023-01-22T09:00:01.539Z,103070
2023-01-22T09:01:00.347Z,103070
2023-01-22T09:02:00.484Z,103070
2023-01-22T09:03:00.290Z,103070
2023-01-22T09:04:00.268Z,103070
2023-01-22T09:05:00.312Z,103070
2023-01-22T09:06:00.285Z,103070
2023-01-22T09:07:00.270Z,103080
2023-01-22T09:08:00.289Z,103080
2023-01-22T09:09:00.310Z,103080
2023-01-22T09:10:00.262Z,103080
2023-01-22T09:11:02.069Z,103080
2023-01-22T09:12:00.335Z,103080
2023-01-22T09:13:00.303Z,103080
2023-01-22T09:14:00.294Z,103080
2023-01-22T09:15:00.302Z,103080
2023-01-22T09:16:00.271Z,103080
2023-01-22T09:17:00.296Z,103080
2023-01-22T09:18:00.340Z,103080
2023-01-22T09:19:00.271Z,103090
2023-01-22T09:20:00.286Z,103090
2023-01-22T09:21:00.269Z,103080
2023-01-22T09:22:00.315Z,103080
2023-01-22T09:23:00.283Z,103080
2023-01-22T09:24:00.261Z,103080
2023-01-22T09:25:00.267Z,103080
2023-01-22T09:26:00.298Z,103080
2023-01-22T09:27:00.294Z,103080
2023-01-22T09:28:00.381Z,103080
2023-01-22T09:29:00.746Z,103080
2023-01-22T09:30:00.285Z,103080
2023-01-22T09:31:00.486Z,103080
2023-01-22T09:32:00.356Z,103080
2023-01-22T09:33:00.489Z,103090
2023-01-22T09:34:00.312Z,103090
2023-01-22T09:35:00.270Z,103090
2023-01-22T09:36:08.403Z,103090
2023-01-22T09:37:00.311Z,103090
2023-01-22T09:38:00.283Z,103090
2023-01-22T09:39:00.307Z,103100
2023-01-22T09:40:00.290Z,103100
2023-01-22T09:41:03.623Z,103090
2023-01-22T09:42:02.346Z,103090
2023-01-22T09:43:03.528Z,103100
2023-01-22T09:44:07.695Z,103100
2023-01-22T09:45:04.051Z,103100
2023-01-22T09:46:02.768Z,103100
2023-01-22T09:47:03.523Z,103100
2023-01-22T09:48:00.860Z,103100
2023-01-22T09:49:01.790Z,103100
2023-01-22T09:50:06.068Z,103100
2023-01-22T09:51:00.392Z,103100
2023-01-22T09:52:00.917Z,103100
2023-01-22T09:53:02.489Z,103100
2023-01-22T09:54:02.059Z,103100
2023-01-22T09:55:00.286Z,103100
2023-01-22T09:56:02.445Z,103100
2023-01-22T09:57:01.829Z,103100
2023-01-22T09:58:01.535Z,103100
2023-01-22T09:59:02.202Z,103100
2023-01-22T10:00:00.552Z,103100
2023-01-22T10:01:01.640Z,103100
2023-01-22T10:02:10.263Z,103100
2023-01-22T10:03:01.590Z,103100
2023-01-22T10:04:03.773Z,103100
2023-01-22T10:05:03.379Z,103100
2023-01-22T10:06:03.651Z,103100
2023-01-22T10:07:01.842Z,103100
2023-01-22T10:08:10.211Z,103100
2023-01-22T10:09:10.205Z,103100
2023-01-22T10:10:02.307Z,103100
2023-01-22T10:11:00.346Z,103100
2023-01-22T10:12:04.345Z,103100
2023-01-22T10:13:10.225Z,103110
2023-01-22T10:14:01.182Z,103110
2023-01-22T10:15:00.288Z,103110
2023-01-22T10:16:00.770Z,103110
2023-01-22T10:17:00.706Z,103110
2023-01-22T10:18:10.224Z,103110
2023-01-22T10:19:00.250Z,103110
2023-01-22T10:20:03.391Z,103110
2023-01-22T10:21:02.523Z,103100
2023-01-22T10:22:03.785Z,103100
2023-01-22T10:23:07.562Z,103100
2023-01-22T10:24:00.284Z,103100
2023-01-22T10:25:00.290Z,103100
2023-01-22T10:26:06.314Z,103100
2023-01-22T10:27:08.841Z,103100
2023-01-22T10:28:00.304Z,103100
2023-01-22T10:29:09.291Z,103100
2023-01-22T10:30:01.847Z,103100
2023-01-22T10:31:00.381Z,103100
2023-01-22T10:32:01.734Z,103100
2023-01-22T10:33:01.634Z,103100
2023-01-22T10:34:01.652Z,103100
2023-01-22T10:35:02.218Z,103100
2023-01-22T10:36:02.920Z,103100
2023-01-22T10:37:02.018Z,103100
2023-01-22T10:38:00.310Z,103100
2023-01-22T10:39:02.733Z,103100
2023-01-22T10:40:00.289Z,103100
2023-01-22T10:41:01.214Z,103100
2023-01-22T10:42:00.871Z,103100
2023-01-22T10:43:10.206Z,103100
2023-01-22T10:44:10.229Z,103100
2023-01-22T10:45:10.223Z,103100
2023-01-22T10:46:02.809Z,103100
2023-01-22T10:47:08.792Z,103100
2023-01-22T10:48:04.721Z,103100
2023-01-22T10:49:01.353Z,103100
2023-01-22T10:50:04.310Z,103100
2023-01-22T10:51:00.308Z,103100
2023-01-22T10:52:04.529Z,103100
2023-01-22T10:53:01.645Z,103100
2023-01-22T10:54:00.446Z,103100
2023-01-22T10:55:01.319Z,103100
2023-01-22T10:56:01.587Z,103100
2023-01-22T10:57:05.150Z,103100
2023-01-22T10:58:02.125Z,103100
2023-01-22T10:59:02.274Z,103090
2023-01-22T11:00:10.222Z,103090
2023-01-22T11:01:02.011Z,103090
2023-01-22T11:02:01.615Z,103090
2023-01-22T11:03:00.573Z,103090
2023-01-22T11:04:10.222Z,103090
2023-01-22T11:05:10.198Z,103090
2023-01-22T11:06:05.130Z,103090
2023-01-22T11:07:05.064Z,103090
2023-01-22T11:08:03.641Z,103090
2023-01-22T11:09:03.743Z,103090
2023-01-22T11:10:08.072Z,103090
2023-01-22T11:11:02.304Z,103100
2023-01-22T11:12:07.215Z,103100
2023-01-22T11:13:06.647Z,103100
2023-01-22T11:14:03.316Z,103100
2023-01-22T11:15:05.299Z,103090
2023-01-22T11:16:01.396Z,103090
2023-01-22T11:17:04.004Z,103090
2023-01-22T11:18:01.192Z,103090
2023-01-22T11:19:04.399Z,103090
2023-01-22T11:20:02.650Z,103090
2023-01-22T11:21:00.954Z,103090
2023-01-22T11:22:02.329Z,103090
2023-01-22T11:23:01.282Z,103080
2023-01-22T11:24:00.255Z,103080
2023-01-22T11:25:01.245Z,103080
2023-01-22T11:26:08.566Z,103080
2023-01-22T11:27:10.223Z,103080
2023-01-22T11:28:06.619Z,103080
2023-01-22T11:29:10.201Z,103070
2023-01-22T11:30:01.285Z,103070
2023-01-22T11:31:10.268Z,103070
2023-01-22T11:32:10.219Z,103070
2023-01-22T11:33:10.224Z,103070
2023-01-22T11:34:10.228Z,103070
2023-01-22T11:35:10.228Z,103070
2023-01-22T11:36:10.197Z,103070
2023-01-22T11:37:10.225Z,103070
2023-01-22T11:38:03.540Z,103070
2023-01-22T11:39:06.844Z,103070
2023-01-22T11:40:06.489Z,103070
2023-01-22T11:41:00.256Z,103060
2023-01-22T11:42:04.350Z,103060
2023-01-22T11:43:00.308Z,103060
2023-01-22T11:44:10.222Z,103060
2023-01-22T11:45:01.265Z,103060
2023-01-22T11:46:03.573Z,103060
2023-01-22T11:47:05.343Z,103060
2023-01-22T11:48:04.957Z,103060
2023-01-22T11:49:10.225Z,103050
2023-01-22T11:50:10.221Z,103050
2023-01-22T11:51:10.238Z,103050
2023-01-22T11:52:06.018Z,103050
2023-01-22T11:53:03.535Z,103050
2023-01-22T11:54:12.027Z,103050
2023-01-22T11:55:00.247Z,103050
2023-01-22T11:56:00.273Z,103050
2023-01-22T11:57:00.255Z,103050
2023-01-22T11:58:00.285Z,103050
2023-01-22T11:59:08.103Z,103050
2023-01-22T12:00:01.290Z,103050
2023-01-22T12:01:10.222Z,103050
2023-01-22T12:02:10.223Z,103050
2023-01-22T12:03:10.228Z,103050
2023-01-22T12:04:10.258Z,103050
2023-01-22T12:05:10.203Z,103050
2023-01-22T12:06:10.202Z,103050
2023-01-22T12:07:01.257Z,103050
2023-01-22T12:08:08.993Z,103050
2023-01-22T12:09:06.809Z,103040
2023-01-22T12:10:10.227Z,103040
2023-01-22T12:11:10.197Z,103040
2023-01-22T12:12:01.291Z,103040
2023-01-22T12:13:00.252Z,103040
2023-01-22T12:14:10.229Z,103040
2023-01-22T12:15:10.197Z,103030
2023-01-22T12:16:00.266Z,103030
2023-01-22T12:17:01.283Z,103030
2023-01-22T12:18:10.223Z,103030
2023-01-22T12:19:01.269Z,103030
2023-01-22T12:20:10.222Z,103030
2023-01-22T12:21:10.218Z,103030
2023-01-22T12:22:03.543Z,103030
2023-01-22T12:23:00.275Z,103030
2023-01-22T12:24:03.535Z,103030
2023-01-22T12:25:10.197Z,103030
2023-01-22T12:26:07.463Z,103030
2023-01-22T12:27:12.325Z,103030
2023-01-22T12:28:00.253Z,103030